sensor_id;sensor_type;location;lat;lon;timestamp;temperature;humidity
38973;DHT22;25333;50.762;4.470;2023-05-10T00:00:44;12.60;99.90
38973;DHT22;25333;50.762;4.470;2023-05-10T00:03:09;12.50;99.90
38973;DHT22;25333;50.762;4.470;2023-05-10T00:05:35;12.60;99.90
38973;DHT22;25333;50.762;4.470;2023-05-10T00:08:01;12.50;99.90
38973;DHT22;25333;50.762;4.470;2023-05-10T00:10:26;12.60;99.90
38973;DHT22;25333;50.762;4.470;2023-05-10T00:12:52;12.60;99.90
38973;DHT22;25333;50.762;4.470;2023-05-10T00:15:18;12.70;99.90
38973;DHT22;25333;50.762;4.470;2023-05-10T00:17:43;12.70;99.90
38973;DHT22;25333;50.762;4.470;2023-05-10T00:20:09;12.60;99.90
38973;DHT22;25333;50.762;4.470;2023-05-10T00:22:35;12.70;99.90
38973;DHT22;25333;50.762;4.470;2023-05-10T00:25:01;12.70;99.90
38973;DHT22;25333;50.762;4.470;2023-05-10T00:27:27;12.70;99.90
38973;DHT22;25333;50.762;4.470;2023-05-10T00:29:52;12.70;99.90
38973;DHT22;25333;50.762;4.470;2023-05-10T00:32:18;12.70;99.90
38973;DHT22;25333;50.762;4.470;2023-05-10T00:34:44;12.70;99.90
38973;DHT22;25333;50.762;4.470;2023-05-10T00:37:09;12.70;99.90
38973;DHT22;25333;50.762;4.470;2023-05-10T00:39:35;12.80;99.90
38973;DHT22;25333;50.762;4.470;2023-05-10T00:42:01;12.80;99.90
38973;DHT22;25333;50.762;4.470;2023-05-10T00:44:27;12.70;99.90
38973;DHT22;25333;50.762;4.470;2023-05-10T00:46:53;12.80;99.90
38973;DHT22;25333;50.762;4.470;2023-05-10T00:49:19;12.80;99.90
38973;DHT22;25333;50.762;4.470;2023-05-10T00:51:46;12.80;99.90
38973;DHT22;25333;50.762;4.470;2023-05-10T00:54:14;12.80;99.90
38973;DHT22;25333;50.762;4.470;2023-05-10T00:56:40;12.80;99.90
38973;DHT22;25333;50.762;4.470;2023-05-10T00:59:09;12.80;99.90
38973;DHT22;25333;50.762;4.470;2023-05-10T01:01:35;12.90;99.90
38973;DHT22;25333;50.762;4.470;2023-05-10T01:04:02;12.80;99.90
38973;DHT22;25333;50.762;4.470;2023-05-10T01:06:28;12.80;99.90
38973;DHT22;25333;50.762;4.470;2023-05-10T01:08:55;12.80;99.90
38973;DHT22;25333;50.762;4.470;2023-05-10T01:11:21;12.80;99.90
38973;DHT22;25333;50.762;4.470;2023-05-10T01:13:52;12.90;99.90
38973;DHT22;25333;50.762;4.470;2023-05-10T01:16:20;12.90;99.90
38973;DHT22;25333;50.762;4.470;2023-05-10T01:18:46;12.90;99.90
38973;DHT22;25333;50.762;4.470;2023-05-10T01:21:33;13.00;99.90
38973;DHT22;25333;50.762;4.470;2023-05-10T01:27:20;13.00;99.90
38973;DHT22;25333;50.762;4.470;2023-05-10T01:32:25;13.00;99.90
38973;DHT22;25333;50.762;4.470;2023-05-10T01:35:03;12.90;99.90
38973;DHT22;25333;50.762;4.470;2023-05-10T01:37:41;12.90;99.90
38973;DHT22;25333;50.762;4.470;2023-05-10T01:40:19;12.90;99.90
38973;DHT22;25333;50.762;4.470;2023-05-10T01:42:51;12.90;99.90
38973;DHT22;25333;50.762;4.470;2023-05-10T01:45:45;12.80;99.90
38973;DHT22;25333;50.762;4.470;2023-05-10T01:48:14;12.90;99.90
38973;DHT22;25333;50.762;4.470;2023-05-10T01:50:43;12.90;99.90
38973;DHT22;25333;50.762;4.470;2023-05-10T01:53:10;12.90;99.90
38973;DHT22;25333;50.762;4.470;2023-05-10T01:55:44;12.90;99.90
38973;DHT22;25333;50.762;4.470;2023-05-10T01:58:19;12.90;99.90
38973;DHT22;25333;50.762;4.470;2023-05-10T02:00:47;12.90;99.90
38973;DHT22;25333;50.762;4.470;2023-05-10T02:03:15;12.80;99.90
38973;DHT22;25333;50.762;4.470;2023-05-10T02:05:43;12.70;99.90
38973;DHT22;25333;50.762;4.470;2023-05-10T02:08:10;12.70;99.90
38973;DHT22;25333;50.762;4.470;2023-05-10T02:10:37;12.70;99.90
38973;DHT22;25333;50.762;4.470;2023-05-10T02:13:05;12.70;99.90
38973;DHT22;25333;50.762;4.470;2023-05-10T02:15:33;12.70;99.90
38973;DHT22;25333;50.762;4.470;2023-05-10T02:18:00;12.70;99.90
38973;DHT22;25333;50.762;4.470;2023-05-10T02:20:28;12.80;99.90
38973;DHT22;25333;50.762;4.470;2023-05-10T02:22:56;12.70;99.90
38973;DHT22;25333;50.762;4.470;2023-05-10T02:25:23;12.70;99.90
38973;DHT22;25333;50.762;4.470;2023-05-10T02:27:50;12.80;99.90
38973;DHT22;25333;50.762;4.470;2023-05-10T02:30:18;12.70;99.90
38973;DHT22;25333;50.762;4.470;2023-05-10T02:32:44;12.80;99.90
38973;DHT22;25333;50.762;4.470;2023-05-10T02:35:10;12.80;99.90
38973;DHT22;25333;50.762;4.470;2023-05-10T02:37:37;12.70;99.90
38973;DHT22;25333;50.762;4.470;2023-05-10T02:40:05;12.70;99.90
38973;DHT22;25333;50.762;4.470;2023-05-10T02:42:35;12.70;99.90
38973;DHT22;25333;50.762;4.470;2023-05-10T02:45:04;12.70;99.90
38973;DHT22;25333;50.762;4.470;2023-05-10T02:47:31;12.70;99.90
38973;DHT22;25333;50.762;4.470;2023-05-10T02:49:56;12.70;99.90
38973;DHT22;25333;50.762;4.470;2023-05-10T02:52:29;12.70;99.90
38973;DHT22;25333;50.762;4.470;2023-05-10T02:55:00;12.70;99.90
38973;DHT22;25333;50.762;4.470;2023-05-10T02:57:31;12.70;99.90
38973;DHT22;25333;50.762;4.470;2023-05-10T02:59:57;12.60;99.90
38973;DHT22;25333;50.762;4.470;2023-05-10T03:02:23;12.60;99.90
38973;DHT22;25333;50.762;4.470;2023-05-10T03:04:49;12.60;99.90
38973;DHT22;25333;50.762;4.470;2023-05-10T03:07:16;12.50;99.90
38973;DHT22;25333;50.762;4.470;2023-05-10T03:09:44;12.50;99.90
38973;DHT22;25333;50.762;4.470;2023-05-10T03:15:03;12.60;99.90
38973;DHT22;25333;50.762;4.470;2023-05-10T03:17:48;12.50;99.90
38973;DHT22;25333;50.762;4.470;2023-05-10T03:20:25;12.50;99.90
38973;DHT22;25333;50.762;4.470;2023-05-10T03:22:55;12.60;99.90
38973;DHT22;25333;50.762;4.470;2023-05-10T03:25:23;12.60;99.90
38973;DHT22;25333;50.762;4.470;2023-05-10T03:27:49;12.60;99.90
38973;DHT22;25333;50.762;4.470;2023-05-10T03:30:16;12.60;99.90
38973;DHT22;25333;50.762;4.470;2023-05-10T03:32:42;12.60;99.90
38973;DHT22;25333;50.762;4.470;2023-05-10T03:35:12;12.50;99.90
38973;DHT22;25333;50.762;4.470;2023-05-10T03:37:38;12.50;99.90
38973;DHT22;25333;50.762;4.470;2023-05-10T03:40:06;12.50;99.90
38973;DHT22;25333;50.762;4.470;2023-05-10T03:42:32;12.50;99.90
38973;DHT22;25333;50.762;4.470;2023-05-10T03:44:58;12.50;99.90
38973;DHT22;25333;50.762;4.470;2023-05-10T03:47:23;12.50;99.90
38973;DHT22;25333;50.762;4.470;2023-05-10T03:49:49;12.50;99.90
38973;DHT22;25333;50.762;4.470;2023-05-10T03:52:14;12.40;99.90
38973;DHT22;25333;50.762;4.470;2023-05-10T03:54:40;12.40;99.90
38973;DHT22;25333;50.762;4.470;2023-05-10T03:57:06;12.40;99.90
38973;DHT22;25333;50.762;4.470;2023-05-10T03:59:32;12.40;99.90
38973;DHT22;25333;50.762;4.470;2023-05-10T04:01:57;12.50;99.90
38973;DHT22;25333;50.762;4.470;2023-05-10T04:04:23;12.50;99.90
38973;DHT22;25333;50.762;4.470;2023-05-10T04:06:49;12.60;99.90
38973;DHT22;25333;50.762;4.470;2023-05-10T04:09:15;12.60;99.90
38973;DHT22;25333;50.762;4.470;2023-05-10T04:11:42;12.60;99.90
38973;DHT22;25333;50.762;4.470;2023-05-10T04:14:07;12.60;99.90
38973;DHT22;25333;50.762;4.470;2023-05-10T04:16:33;12.60;99.90
38973;DHT22;25333;50.762;4.470;2023-05-10T04:18:59;12.60;99.90
38973;DHT22;25333;50.762;4.470;2023-05-10T04:21:25;12.60;99.90
38973;DHT22;25333;50.762;4.470;2023-05-10T04:23:51;12.50;99.90
38973;DHT22;25333;50.762;4.470;2023-05-10T04:26:16;12.50;99.90
38973;DHT22;25333;50.762;4.470;2023-05-10T04:28:42;12.50;99.90
38973;DHT22;25333;50.762;4.470;2023-05-10T04:31:09;12.60;99.90
38973;DHT22;25333;50.762;4.470;2023-05-10T04:33:35;12.50;99.90
38973;DHT22;25333;50.762;4.470;2023-05-10T04:36:02;12.50;99.90
38973;DHT22;25333;50.762;4.470;2023-05-10T04:38:28;12.60;99.90
38973;DHT22;25333;50.762;4.470;2023-05-10T04:40:54;12.70;99.90
38973;DHT22;25333;50.762;4.470;2023-05-10T04:43:20;12.70;99.90
38973;DHT22;25333;50.762;4.470;2023-05-10T04:45:45;12.70;99.90
38973;DHT22;25333;50.762;4.470;2023-05-10T04:48:11;12.60;99.90
38973;DHT22;25333;50.762;4.470;2023-05-10T04:50:37;12.50;99.90
38973;DHT22;25333;50.762;4.470;2023-05-10T04:53:04;12.50;99.90
38973;DHT22;25333;50.762;4.470;2023-05-10T04:55:29;12.50;99.90
38973;DHT22;25333;50.762;4.470;2023-05-10T04:57:55;12.40;99.90
38973;DHT22;25333;50.762;4.470;2023-05-10T05:00:22;12.40;99.90
38973;DHT22;25333;50.762;4.470;2023-05-10T05:02:48;12.30;99.90
38973;DHT22;25333;50.762;4.470;2023-05-10T05:05:14;12.30;99.90
38973;DHT22;25333;50.762;4.470;2023-05-10T05:07:40;12.30;99.90
38973;DHT22;25333;50.762;4.470;2023-05-10T05:10:07;12.40;99.90
38973;DHT22;25333;50.762;4.470;2023-05-10T05:12:33;12.40;99.90
38973;DHT22;25333;50.762;4.470;2023-05-10T05:14:58;12.40;99.90
38973;DHT22;25333;50.762;4.470;2023-05-10T05:17:24;12.40;99.90
38973;DHT22;25333;50.762;4.470;2023-05-10T05:19:50;12.40;99.90
38973;DHT22;25333;50.762;4.470;2023-05-10T05:22:16;12.40;99.90
38973;DHT22;25333;50.762;4.470;2023-05-10T05:24:42;12.40;99.90
38973;DHT22;25333;50.762;4.470;2023-05-10T05:27:07;12.30;99.90
38973;DHT22;25333;50.762;4.470;2023-05-10T05:29:33;12.40;99.90
38973;DHT22;25333;50.762;4.470;2023-05-10T05:31:59;12.40;99.90
38973;DHT22;25333;50.762;4.470;2023-05-10T05:34:25;12.40;99.90
38973;DHT22;25333;50.762;4.470;2023-05-10T05:36:51;12.30;99.90
38973;DHT22;25333;50.762;4.470;2023-05-10T05:39:17;12.20;99.90
38973;DHT22;25333;50.762;4.470;2023-05-10T05:41:42;12.10;99.90
38973;DHT22;25333;50.762;4.470;2023-05-10T05:44:08;12.10;99.90
38973;DHT22;25333;50.762;4.470;2023-05-10T05:46:35;12.10;99.90
38973;DHT22;25333;50.762;4.470;2023-05-10T05:49:01;12.00;99.90
38973;DHT22;25333;50.762;4.470;2023-05-10T05:51:26;11.90;99.90
38973;DHT22;25333;50.762;4.470;2023-05-10T05:53:52;11.90;99.90
38973;DHT22;25333;50.762;4.470;2023-05-10T05:56:18;12.00;99.90
38973;DHT22;25333;50.762;4.470;2023-05-10T05:58:52;12.00;99.90
38973;DHT22;25333;50.762;4.470;2023-05-10T06:01:18;12.00;99.90
38973;DHT22;25333;50.762;4.470;2023-05-10T06:03:43;12.00;99.90
38973;DHT22;25333;50.762;4.470;2023-05-10T06:06:09;12.00;99.90
38973;DHT22;25333;50.762;4.470;2023-05-10T06:08:35;12.00;99.90
38973;DHT22;25333;50.762;4.470;2023-05-10T06:11:01;11.90;99.90
38973;DHT22;25333;50.762;4.470;2023-05-10T06:13:26;12.00;99.90
38973;DHT22;25333;50.762;4.470;2023-05-10T06:15:58;12.00;99.90
38973;DHT22;25333;50.762;4.470;2023-05-10T06:18:24;11.90;99.90
38973;DHT22;25333;50.762;4.470;2023-05-10T06:20:50;11.80;99.90
38973;DHT22;25333;50.762;4.470;2023-05-10T06:23:17;11.80;99.90
38973;DHT22;25333;50.762;4.470;2023-05-10T06:25:42;11.80;99.90
38973;DHT22;25333;50.762;4.470;2023-05-10T06:28:08;11.80;99.90
38973;DHT22;25333;50.762;4.470;2023-05-10T06:30:36;11.80;99.90
38973;DHT22;25333;50.762;4.470;2023-05-10T06:33:02;11.80;99.90
38973;DHT22;25333;50.762;4.470;2023-05-10T06:35:28;11.80;99.90
38973;DHT22;25333;50.762;4.470;2023-05-10T06:37:54;11.70;99.90
38973;DHT22;25333;50.762;4.470;2023-05-10T06:40:20;11.70;99.90
38973;DHT22;25333;50.762;4.470;2023-05-10T06:42:47;11.80;99.90
38973;DHT22;25333;50.762;4.470;2023-05-10T06:45:13;11.90;99.90
38973;DHT22;25333;50.762;4.470;2023-05-10T06:47:40;11.90;99.90
38973;DHT22;25333;50.762;4.470;2023-05-10T06:50:10;11.90;99.90
38973;DHT22;25333;50.762;4.470;2023-05-10T06:52:37;12.00;99.90
38973;DHT22;25333;50.762;4.470;2023-05-10T06:55:03;12.00;99.90
38973;DHT22;25333;50.762;4.470;2023-05-10T06:57:29;12.00;99.90
38973;DHT22;25333;50.762;4.470;2023-05-10T06:59:55;12.00;99.90
38973;DHT22;25333;50.762;4.470;2023-05-10T07:02:22;12.00;99.90
38973;DHT22;25333;50.762;4.470;2023-05-10T07:04:48;11.90;99.90
38973;DHT22;25333;50.762;4.470;2023-05-10T07:07:14;11.90;99.90
38973;DHT22;25333;50.762;4.470;2023-05-10T07:09:40;11.90;99.90
38973;DHT22;25333;50.762;4.470;2023-05-10T07:12:06;11.80;99.90
38973;DHT22;25333;50.762;4.470;2023-05-10T07:14:34;11.90;99.90
38973;DHT22;25333;50.762;4.470;2023-05-10T07:17:00;11.80;99.90
38973;DHT22;25333;50.762;4.470;2023-05-10T07:19:26;11.80;99.90
38973;DHT22;25333;50.762;4.470;2023-05-10T07:21:51;11.80;99.90
38973;DHT22;25333;50.762;4.470;2023-05-10T07:24:17;11.70;99.90
38973;DHT22;25333;50.762;4.470;2023-05-10T07:26:43;11.80;99.90
38973;DHT22;25333;50.762;4.470;2023-05-10T07:29:08;11.80;99.90
38973;DHT22;25333;50.762;4.470;2023-05-10T07:31:35;11.80;99.90
38973;DHT22;25333;50.762;4.470;2023-05-10T07:34:01;11.80;99.90
38973;DHT22;25333;50.762;4.470;2023-05-10T07:36:26;11.90;99.90
38973;DHT22;25333;50.762;4.470;2023-05-10T07:38:53;11.90;99.90
38973;DHT22;25333;50.762;4.470;2023-05-10T07:41:18;11.90;99.90
38973;DHT22;25333;50.762;4.470;2023-05-10T07:43:44;12.00;99.90
38973;DHT22;25333;50.762;4.470;2023-05-10T07:46:10;12.00;99.90
38973;DHT22;25333;50.762;4.470;2023-05-10T07:48:37;11.90;99.90
38973;DHT22;25333;50.762;4.470;2023-05-10T07:51:02;12.00;99.90
38973;DHT22;25333;50.762;4.470;2023-05-10T07:53:28;12.00;99.90
38973;DHT22;25333;50.762;4.470;2023-05-10T07:55:57;12.00;99.90
38973;DHT22;25333;50.762;4.470;2023-05-10T07:58:24;12.00;99.90
38973;DHT22;25333;50.762;4.470;2023-05-10T08:00:49;12.00;99.90
38973;DHT22;25333;50.762;4.470;2023-05-10T08:03:15;12.00;99.90
38973;DHT22;25333;50.762;4.470;2023-05-10T08:05:41;12.10;99.90
38973;DHT22;25333;50.762;4.470;2023-05-10T08:08:07;12.10;99.90
38973;DHT22;25333;50.762;4.470;2023-05-10T08:10:32;12.10;99.90
38973;DHT22;25333;50.762;4.470;2023-05-10T08:12:58;12.10;99.90
38973;DHT22;25333;50.762;4.470;2023-05-10T08:15:24;12.10;99.90
38973;DHT22;25333;50.762;4.470;2023-05-10T08:17:51;12.10;99.90
38973;DHT22;25333;50.762;4.470;2023-05-10T08:20:17;12.10;99.90
38973;DHT22;25333;50.762;4.470;2023-05-10T08:22:45;12.00;99.90
38973;DHT22;25333;50.762;4.470;2023-05-10T08:25:11;12.10;99.90
38973;DHT22;25333;50.762;4.470;2023-05-10T08:27:36;12.10;99.90
38973;DHT22;25333;50.762;4.470;2023-05-10T08:30:02;12.20;99.90
38973;DHT22;25333;50.762;4.470;2023-05-10T08:32:28;12.10;99.90
38973;DHT22;25333;50.762;4.470;2023-05-10T08:34:54;12.20;99.90
38973;DHT22;25333;50.762;4.470;2023-05-10T08:37:20;12.30;99.90
38973;DHT22;25333;50.762;4.470;2023-05-10T08:39:45;12.20;99.90
38973;DHT22;25333;50.762;4.470;2023-05-10T08:42:18;12.20;99.90
38973;DHT22;25333;50.762;4.470;2023-05-10T08:44:45;12.30;99.90
38973;DHT22;25333;50.762;4.470;2023-05-10T08:47:15;12.30;99.90
38973;DHT22;25333;50.762;4.470;2023-05-10T08:49:41;12.20;99.90
38973;DHT22;25333;50.762;4.470;2023-05-10T08:52:10;12.20;99.90
38973;DHT22;25333;50.762;4.470;2023-05-10T08:54:38;12.20;99.90
38973;DHT22;25333;50.762;4.470;2023-05-10T08:57:04;12.10;99.90
38973;DHT22;25333;50.762;4.470;2023-05-10T08:59:30;12.10;99.90
38973;DHT22;25333;50.762;4.470;2023-05-10T09:01:59;12.10;99.90
38973;DHT22;25333;50.762;4.470;2023-05-10T09:04:25;12.10;99.90
38973;DHT22;25333;50.762;4.470;2023-05-10T09:06:51;12.20;99.90
38973;DHT22;25333;50.762;4.470;2023-05-10T09:09:17;12.20;99.90
38973;DHT22;25333;50.762;4.470;2023-05-10T09:11:44;12.20;99.90
38973;DHT22;25333;50.762;4.470;2023-05-10T09:14:11;12.30;99.90
38973;DHT22;25333;50.762;4.470;2023-05-10T09:16:37;12.30;99.90
38973;DHT22;25333;50.762;4.470;2023-05-10T09:19:03;12.40;99.90
38973;DHT22;25333;50.762;4.470;2023-05-10T09:21:30;12.40;99.90
38973;DHT22;25333;50.762;4.470;2023-05-10T09:23:56;12.30;99.90
38973;DHT22;25333;50.762;4.470;2023-05-10T09:26:22;12.30;99.90
38973;DHT22;25333;50.762;4.470;2023-05-10T09:28:57;12.30;99.90
38973;DHT22;25333;50.762;4.470;2023-05-10T09:31:24;12.30;99.90
38973;DHT22;25333;50.762;4.470;2023-05-10T09:33:53;12.30;99.90
38973;DHT22;25333;50.762;4.470;2023-05-10T09:36:19;12.40;99.90
38973;DHT22;25333;50.762;4.470;2023-05-10T09:38:51;12.30;99.90
38973;DHT22;25333;50.762;4.470;2023-05-10T09:41:24;12.30;99.90
38973;DHT22;25333;50.762;4.470;2023-05-10T09:43:55;12.40;99.90
38973;DHT22;25333;50.762;4.470;2023-05-10T09:46:22;12.40;99.90
38973;DHT22;25333;50.762;4.470;2023-05-10T09:48:48;12.30;99.90
38973;DHT22;25333;50.762;4.470;2023-05-10T09:51:24;12.30;99.90
38973;DHT22;25333;50.762;4.470;2023-05-10T09:54:12;12.30;99.90
38973;DHT22;25333;50.762;4.470;2023-05-10T09:56:39;12.40;99.90
38973;DHT22;25333;50.762;4.470;2023-05-10T09:59:09;12.30;99.90
38973;DHT22;25333;50.762;4.470;2023-05-10T10:01:34;12.40;99.90
38973;DHT22;25333;50.762;4.470;2023-05-10T10:04:09;12.40;99.90
38973;DHT22;25333;50.762;4.470;2023-05-10T10:06:36;12.40;99.90
38973;DHT22;25333;50.762;4.470;2023-05-10T10:09:03;12.50;99.90
38973;DHT22;25333;50.762;4.470;2023-05-10T10:11:29;12.40;99.90
38973;DHT22;25333;50.762;4.470;2023-05-10T10:13:55;12.50;99.90
38973;DHT22;25333;50.762;4.470;2023-05-10T10:16:21;12.50;99.90
38973;DHT22;25333;50.762;4.470;2023-05-10T10:18:47;12.50;99.90
38973;DHT22;25333;50.762;4.470;2023-05-10T10:21:14;12.60;99.90
38973;DHT22;25333;50.762;4.470;2023-05-10T10:23:40;12.60;99.90
38973;DHT22;25333;50.762;4.470;2023-05-10T10:26:06;12.60;99.90
38973;DHT22;25333;50.762;4.470;2023-05-10T10:34:08;12.70;99.90
38973;DHT22;25333;50.762;4.470;2023-05-10T10:36:45;12.70;99.90
38973;DHT22;25333;50.762;4.470;2023-05-10T10:39:11;12.80;99.90
38973;DHT22;25333;50.762;4.470;2023-05-10T10:41:50;12.90;99.90
38973;DHT22;25333;50.762;4.470;2023-05-10T10:47:06;13.10;99.90
38973;DHT22;25333;50.762;4.470;2023-05-10T10:50:05;13.00;99.90
38973;DHT22;25333;50.762;4.470;2023-05-10T10:52:42;12.90;99.90
38973;DHT22;25333;50.762;4.470;2023-05-10T10:55:13;12.90;99.90
38973;DHT22;25333;50.762;4.470;2023-05-10T10:57:49;12.90;99.90
38973;DHT22;25333;50.762;4.470;2023-05-10T11:03:13;13.00;99.90
38973;DHT22;25333;50.762;4.470;2023-05-10T11:05:47;13.00;99.90
38973;DHT22;25333;50.762;4.470;2023-05-10T11:08:30;13.10;99.90
38973;DHT22;25333;50.762;4.470;2023-05-10T11:15:57;13.20;99.90
38973;DHT22;25333;50.762;4.470;2023-05-10T11:20:52;13.20;99.90
38973;DHT22;25333;50.762;4.470;2023-05-10T11:23:18;13.30;99.90
38973;DHT22;25333;50.762;4.470;2023-05-10T11:25:45;13.30;99.90
38973;DHT22;25333;50.762;4.470;2023-05-10T11:28:12;13.30;99.90
38973;DHT22;25333;50.762;4.470;2023-05-10T11:30:39;13.30;99.90
38973;DHT22;25333;50.762;4.470;2023-05-10T11:33:06;13.30;99.90
38973;DHT22;25333;50.762;4.470;2023-05-10T11:35:40;13.30;99.90
38973;DHT22;25333;50.762;4.470;2023-05-10T11:38:10;13.30;99.90
38973;DHT22;25333;50.762;4.470;2023-05-10T11:40:37;13.30;99.90
38973;DHT22;25333;50.762;4.470;2023-05-10T11:43:03;13.30;99.90
38973;DHT22;25333;50.762;4.470;2023-05-10T11:45:32;13.30;99.90
38973;DHT22;25333;50.762;4.470;2023-05-10T11:47:59;13.40;99.90
38973;DHT22;25333;50.762;4.470;2023-05-10T11:50:25;13.40;99.90
38973;DHT22;25333;50.762;4.470;2023-05-10T11:52:57;13.40;99.90
38973;DHT22;25333;50.762;4.470;2023-05-10T11:55:24;13.40;99.90
38973;DHT22;25333;50.762;4.470;2023-05-10T11:57:54;13.50;99.90
38973;DHT22;25333;50.762;4.470;2023-05-10T12:00:21;13.50;99.90
38973;DHT22;25333;50.762;4.470;2023-05-10T12:02:47;13.50;99.90
38973;DHT22;25333;50.762;4.470;2023-05-10T12:05:13;13.50;99.90
38973;DHT22;25333;50.762;4.470;2023-05-10T12:07:39;13.50;99.90
38973;DHT22;25333;50.762;4.470;2023-05-10T12:12:46;13.60;99.90
38973;DHT22;25333;50.762;4.470;2023-05-10T12:17:45;13.60;99.90
38973;DHT22;25333;50.762;4.470;2023-05-10T12:20:19;13.60;99.90
38973;DHT22;25333;50.762;4.470;2023-05-10T12:22:55;13.80;99.90
38973;DHT22;25333;50.762;4.470;2023-05-10T12:25:23;13.90;99.90
38973;DHT22;25333;50.762;4.470;2023-05-10T12:30:41;14.00;99.90
38973;DHT22;25333;50.762;4.470;2023-05-10T12:33:13;14.00;99.90
38973;DHT22;25333;50.762;4.470;2023-05-10T12:35:47;14.10;99.90
38973;DHT22;25333;50.762;4.470;2023-05-10T12:38:34;14.20;99.90
38973;DHT22;25333;50.762;4.470;2023-05-10T12:41:02;14.40;99.90
38973;DHT22;25333;50.762;4.470;2023-05-10T12:43:28;14.30;99.90
38973;DHT22;25333;50.762;4.470;2023-05-10T12:45:55;14.30;99.90
38973;DHT22;25333;50.762;4.470;2023-05-10T12:48:21;14.30;99.90
38973;DHT22;25333;50.762;4.470;2023-05-10T12:50:47;14.30;99.90
38973;DHT22;25333;50.762;4.470;2023-05-10T12:53:16;14.30;99.90
38973;DHT22;25333;50.762;4.470;2023-05-10T12:55:43;14.30;99.90
38973;DHT22;25333;50.762;4.470;2023-05-10T12:58:08;14.30;99.90
38973;DHT22;25333;50.762;4.470;2023-05-10T13:00:34;14.30;99.90
38973;DHT22;25333;50.762;4.470;2023-05-10T13:03:00;14.30;99.90
38973;DHT22;25333;50.762;4.470;2023-05-10T13:05:25;14.20;99.90
38973;DHT22;25333;50.762;4.470;2023-05-10T13:07:51;14.20;99.90
38973;DHT22;25333;50.762;4.470;2023-05-10T13:10:17;14.30;99.90
38973;DHT22;25333;50.762;4.470;2023-05-10T13:12:42;14.30;99.90
38973;DHT22;25333;50.762;4.470;2023-05-10T13:15:08;14.20;99.90
38973;DHT22;25333;50.762;4.470;2023-05-10T13:17:34;14.20;99.90
38973;DHT22;25333;50.762;4.470;2023-05-10T13:20:00;14.20;99.90
38973;DHT22;25333;50.762;4.470;2023-05-10T13:22:26;14.30;99.90
38973;DHT22;25333;50.762;4.470;2023-05-10T13:24:51;14.20;99.90
38973;DHT22;25333;50.762;4.470;2023-05-10T13:27:17;14.20;99.90
38973;DHT22;25333;50.762;4.470;2023-05-10T13:29:42;14.00;99.90
38973;DHT22;25333;50.762;4.470;2023-05-10T13:32:08;14.00;99.90
38973;DHT22;25333;50.762;4.470;2023-05-10T13:34:34;14.00;99.90
38973;DHT22;25333;50.762;4.470;2023-05-10T13:37:01;14.00;99.90
38973;DHT22;25333;50.762;4.470;2023-05-10T13:39:26;14.00;99.90
38973;DHT22;25333;50.762;4.470;2023-05-10T13:41:52;14.10;99.90
38973;DHT22;25333;50.762;4.470;2023-05-10T13:44:19;14.20;99.90
38973;DHT22;25333;50.762;4.470;2023-05-10T13:46:45;14.40;99.90
38973;DHT22;25333;50.762;4.470;2023-05-10T13:49:11;14.40;99.90
38973;DHT22;25333;50.762;4.470;2023-05-10T13:51:37;14.50;99.90
38973;DHT22;25333;50.762;4.470;2023-05-10T13:54:03;14.50;99.90
38973;DHT22;25333;50.762;4.470;2023-05-10T13:56:28;14.50;99.90
38973;DHT22;25333;50.762;4.470;2023-05-10T13:58:55;14.50;99.90
38973;DHT22;25333;50.762;4.470;2023-05-10T14:01:21;14.40;99.90
38973;DHT22;25333;50.762;4.470;2023-05-10T14:03:47;14.50;99.90
38973;DHT22;25333;50.762;4.470;2023-05-10T14:06:13;14.50;99.90
38973;DHT22;25333;50.762;4.470;2023-05-10T14:08:39;14.50;99.90
38973;DHT22;25333;50.762;4.470;2023-05-10T14:11:04;14.50;99.90
38973;DHT22;25333;50.762;4.470;2023-05-10T14:13:30;14.50;99.90
38973;DHT22;25333;50.762;4.470;2023-05-10T14:15:56;14.60;99.90
38973;DHT22;25333;50.762;4.470;2023-05-10T14:18:22;14.60;99.90
38973;DHT22;25333;50.762;4.470;2023-05-10T14:20:47;14.70;99.90
38973;DHT22;25333;50.762;4.470;2023-05-10T14:23:13;14.70;99.90
38973;DHT22;25333;50.762;4.470;2023-05-10T14:25:41;14.70;99.90
38973;DHT22;25333;50.762;4.470;2023-05-10T14:28:07;14.70;99.90
38973;DHT22;25333;50.762;4.470;2023-05-10T14:30:33;14.70;99.90
38973;DHT22;25333;50.762;4.470;2023-05-10T14:33:01;14.70;99.90
38973;DHT22;25333;50.762;4.470;2023-05-10T14:35:27;14.70;99.90
38973;DHT22;25333;50.762;4.470;2023-05-10T14:37:53;14.70;99.90
38973;DHT22;25333;50.762;4.470;2023-05-10T14:40:19;14.70;99.90
38973;DHT22;25333;50.762;4.470;2023-05-10T14:42:44;14.60;99.90
38973;DHT22;25333;50.762;4.470;2023-05-10T14:45:10;14.60;99.90
38973;DHT22;25333;50.762;4.470;2023-05-10T14:47:37;14.70;99.90
38973;DHT22;25333;50.762;4.470;2023-05-10T14:50:03;14.80;99.90
38973;DHT22;25333;50.762;4.470;2023-05-10T14:52:29;14.80;99.90
38973;DHT22;25333;50.762;4.470;2023-05-10T14:54:54;14.80;99.90
38973;DHT22;25333;50.762;4.470;2023-05-10T14:57:20;14.80;99.90
38973;DHT22;25333;50.762;4.470;2023-05-10T14:59:46;14.80;99.90
38973;DHT22;25333;50.762;4.470;2023-05-10T15:02:11;14.80;99.90
38973;DHT22;25333;50.762;4.470;2023-05-10T15:04:38;14.80;99.90
38973;DHT22;25333;50.762;4.470;2023-05-10T15:07:03;14.80;99.90
38973;DHT22;25333;50.762;4.470;2023-05-10T15:09:29;14.70;99.90
38973;DHT22;25333;50.762;4.470;2023-05-10T15:11:55;14.70;99.90
38973;DHT22;25333;50.762;4.470;2023-05-10T15:14:22;14.70;99.90
38973;DHT22;25333;50.762;4.470;2023-05-10T15:16:48;14.70;99.90
38973;DHT22;25333;50.762;4.470;2023-05-10T15:19:13;14.60;99.90
38973;DHT22;25333;50.762;4.470;2023-05-10T15:21:39;14.50;99.90
38973;DHT22;25333;50.762;4.470;2023-05-10T15:24:08;14.50;99.90
38973;DHT22;25333;50.762;4.470;2023-05-10T15:26:34;14.50;99.90
38973;DHT22;25333;50.762;4.470;2023-05-10T15:28:59;14.50;99.90
38973;DHT22;25333;50.762;4.470;2023-05-10T15:31:25;14.40;99.90
38973;DHT22;25333;50.762;4.470;2023-05-10T15:33:58;14.40;99.90
38973;DHT22;25333;50.762;4.470;2023-05-10T15:36:24;14.30;99.90
38973;DHT22;25333;50.762;4.470;2023-05-10T15:38:50;14.30;99.90
38973;DHT22;25333;50.762;4.470;2023-05-10T15:41:15;14.30;99.90
38973;DHT22;25333;50.762;4.470;2023-05-10T15:43:41;14.30;99.90
38973;DHT22;25333;50.762;4.470;2023-05-10T15:46:07;14.40;99.90
38973;DHT22;25333;50.762;4.470;2023-05-10T15:48:32;14.50;99.90
38973;DHT22;25333;50.762;4.470;2023-05-10T15:50:58;14.40;99.90
38973;DHT22;25333;50.762;4.470;2023-05-10T15:53:24;14.20;99.90
38973;DHT22;25333;50.762;4.470;2023-05-10T15:55:50;14.20;99.90
38973;DHT22;25333;50.762;4.470;2023-05-10T15:58:16;14.20;99.90
38973;DHT22;25333;50.762;4.470;2023-05-10T16:00:41;14.20;99.90
38973;DHT22;25333;50.762;4.470;2023-05-10T16:03:07;14.20;99.90
38973;DHT22;25333;50.762;4.470;2023-05-10T16:05:33;14.30;99.90